createdAt,value
2019-05-21T00:01:03.346Z,18.34
2019-05-21T00:03:31.849Z,18.38
2019-05-21T00:06:00.366Z,18.34
2019-05-21T00:08:28.864Z,18.32
2019-05-21T00:10:57.367Z,18.32
2019-05-21T00:13:25.873Z,18.32
2019-05-21T00:15:54.459Z,18.31
2019-05-21T00:18:23.319Z,18.31
2019-05-21T00:20:51.799Z,18.29
2019-05-21T00:23:20.292Z,18.29
2019-05-21T00:25:48.765Z,18.26
2019-05-21T00:28:41.115Z,18.25
2019-05-21T00:31:46.065Z,18.25
2019-05-21T00:34:50.947Z,18.25
2019-05-21T00:37:55.911Z,18.24
2019-05-21T00:41:00.802Z,18.26
2019-05-21T00:43:40.268Z,18.21
2019-05-21T00:46:08.764Z,18.19
2019-05-21T00:48:37.239Z,18.17
2019-05-21T00:51:05.736Z,18.17
2019-05-21T00:53:34.310Z,18.14
2019-05-21T00:56:02.843Z,18.10
2019-05-21T00:58:31.380Z,18.09
2019-05-21T01:00:59.865Z,18.07
2019-05-21T01:03:31.741Z,18.00
2019-05-21T01:06:00.297Z,18.00
2019-05-21T01:08:28.762Z,17.96
2019-05-21T01:10:57.271Z,17.90
2019-05-21T01:13:25.737Z,17.85
2019-05-21T01:15:54.496Z,17.84
2019-05-21T01:18:22.984Z,17.85
2019-05-21T01:20:51.443Z,17.81
2019-05-21T01:23:19.912Z,17.77
2019-05-21T01:25:48.416Z,17.78
2019-05-21T01:28:16.917Z,17.77
2019-05-21T01:30:45.387Z,17.79
2019-05-21T01:33:13.845Z,17.80
2019-05-21T01:35:42.664Z,17.73
2019-05-21T01:38:11.133Z,17.60
2019-05-21T01:40:39.626Z,17.52
2019-05-21T01:43:08.095Z,17.49
2019-05-21T01:45:36.559Z,17.47
2019-05-21T01:48:05.012Z,17.48
2019-05-21T01:50:33.742Z,17.49
2019-05-21T01:53:03.084Z,17.47
2019-05-21T01:55:31.707Z,17.48
2019-05-21T01:58:00.187Z,17.43
2019-05-21T02:00:28.704Z,17.43
2019-05-21T02:02:57.187Z,17.45
2019-05-21T02:05:33.059Z,17.47
2019-05-21T02:07:56.189Z,17.45
2019-05-21T02:10:24.670Z,17.48
2019-05-21T02:12:53.175Z,17.45
2019-05-21T02:15:21.933Z,17.41
2019-05-21T02:17:50.433Z,17.42
2019-05-21T02:20:18.925Z,17.38
2019-05-21T02:22:47.394Z,17.31
2019-05-21T02:25:15.870Z,17.31
2019-05-21T02:27:44.676Z,17.26
2019-05-21T02:30:13.534Z,17.25
2019-05-21T02:32:41.997Z,17.26
2019-05-21T02:35:10.698Z,17.20
2019-05-21T02:37:39.161Z,17.21
2019-05-21T02:40:07.631Z,17.23
2019-05-21T02:42:36.470Z,17.25
2019-05-21T02:45:05.233Z,17.29
2019-05-21T02:47:33.698Z,17.27
2019-05-21T02:50:02.207Z,17.32
2019-05-21T02:52:30.700Z,17.31
2019-05-21T02:54:59.222Z,17.34
2019-05-21T02:57:38.750Z,17.30
2019-05-21T03:00:09.002Z,17.31
2019-05-21T03:02:39.482Z,17.29
2019-05-21T03:05:07.953Z,17.28
2019-05-21T03:07:36.447Z,17.28
2019-05-21T03:10:05.200Z,17.33
2019-05-21T03:12:33.998Z,17.32
2019-05-21T03:15:02.782Z,17.33
2019-05-21T03:17:31.278Z,17.30
2019-05-21T03:20:00.050Z,17.24
2019-05-21T03:22:28.549Z,17.19
2019-05-21T03:25:01.840Z,17.16
2019-05-21T03:27:27.245Z,17.14
2019-05-21T03:29:55.710Z,17.18
2019-05-21T03:32:24.193Z,17.20
2019-05-21T03:34:52.658Z,17.20
2019-05-21T03:37:21.128Z,17.18
2019-05-21T03:39:49.594Z,17.18
2019-05-21T03:42:18.078Z,17.16
2019-05-21T03:44:59.080Z,17.15
2019-05-21T03:47:16.781Z,17.14
2019-05-21T03:49:45.261Z,17.14
2019-05-21T03:52:14.086Z,17.15
2019-05-21T03:54:42.893Z,17.13
2019-05-21T03:57:11.381Z,17.11
2019-05-21T03:59:39.935Z,17.11
2019-05-21T04:02:08.500Z,17.16
2019-05-21T04:04:36.970Z,17.17
2019-05-21T04:07:05.424Z,17.16
2019-05-21T04:09:33.922Z,17.16
2019-05-21T04:12:02.397Z,17.19
2019-05-21T04:14:33.601Z,17.19
2019-05-21T04:17:23.955Z,17.17
2019-05-21T04:19:52.599Z,17.15
2019-05-21T04:22:21.079Z,17.13
2019-05-21T04:24:49.565Z,17.12
2019-05-21T04:27:18.064Z,17.11
2019-05-21T04:29:46.561Z,17.11
2019-05-21T04:32:15.018Z,17.10
2019-05-21T04:34:43.498Z,17.14
2019-05-21T04:37:13.358Z,17.18
2019-05-21T04:39:42.678Z,17.23
2019-05-21T04:42:11.159Z,17.25
2019-05-21T04:44:39.650Z,17.26
2019-05-21T04:47:08.423Z,17.24
2019-05-21T04:49:36.905Z,17.24
2019-05-21T04:52:05.700Z,17.27
2019-05-21T04:54:34.182Z,17.31
2019-05-21T04:57:02.678Z,17.28
2019-05-21T04:59:31.290Z,17.24
2019-05-21T05:01:59.882Z,17.21
2019-05-21T05:04:28.360Z,17.21
2019-05-21T05:06:56.840Z,17.21
2019-05-21T05:09:25.330Z,17.20
2019-05-21T05:11:53.819Z,17.21
2019-05-21T05:14:22.297Z,17.23
2019-05-21T05:16:50.801Z,17.24
2019-05-21T05:19:19.688Z,17.21
2019-05-21T05:21:48.496Z,17.19
2019-05-21T05:24:16.973Z,17.20
2019-05-21T05:26:45.470Z,17.20
2019-05-21T05:29:14.223Z,17.22
2019-05-21T05:31:42.688Z,17.25
2019-05-21T05:34:11.522Z,17.26
2019-05-21T05:36:40.000Z,17.28
2019-05-21T05:39:08.764Z,17.31
2019-05-21T05:41:37.276Z,17.31
2019-05-21T05:44:05.759Z,17.34
2019-05-21T05:46:34.259Z,17.33
2019-05-21T05:49:08.612Z,17.30
2019-05-21T05:51:37.101Z,17.25
2019-05-21T05:54:07.720Z,17.25
2019-05-21T05:56:35.769Z,17.30
2019-05-21T05:59:04.287Z,17.32
2019-05-21T06:01:33.846Z,17.32
2019-05-21T06:04:02.391Z,17.32
2019-05-21T06:06:31.195Z,17.32
2019-05-21T06:08:59.710Z,17.32
2019-05-21T06:11:28.191Z,17.32
2019-05-21T06:13:56.692Z,17.33
2019-05-21T06:16:25.179Z,17.37
2019-05-21T06:18:53.891Z,17.37
2019-05-21T06:21:22.366Z,17.40
2019-05-21T06:23:50.849Z,17.43
2019-05-21T06:26:19.875Z,17.44
2019-05-21T06:28:48.941Z,17.43
2019-05-21T06:31:17.746Z,17.43
2019-05-21T06:33:46.217Z,17.41
2019-05-21T06:36:14.705Z,17.39
2019-05-21T06:38:43.183Z,17.39
2019-05-21T06:41:11.944Z,17.39
2019-05-21T06:43:40.411Z,17.34
2019-05-21T06:46:08.880Z,17.32
2019-05-21T06:48:37.343Z,17.31
2019-05-21T06:51:05.845Z,17.29
2019-05-21T06:53:34.302Z,17.28
2019-05-21T06:56:06.948Z,17.30
2019-05-21T06:58:32.991Z,17.31
2019-05-21T07:01:01.780Z,17.32
2019-05-21T07:03:30.271Z,17.32
2019-05-21T07:05:59.612Z,17.32
2019-05-21T07:08:34.798Z,17.36
2019-05-21T07:10:58.412Z,17.38
2019-05-21T07:13:30.533Z,17.38
2019-05-21T07:15:57.133Z,17.36
2019-05-21T07:18:25.631Z,17.33
2019-05-21T07:20:54.153Z,17.29
2019-05-21T07:23:22.647Z,17.31
2019-05-21T07:25:51.120Z,17.35
2019-05-21T07:28:19.619Z,17.40
2019-05-21T07:30:48.431Z,17.43
2019-05-21T07:33:16.936Z,17.41
2019-05-21T07:35:45.436Z,17.41
2019-05-21T07:38:13.984Z,17.39
2019-05-21T07:40:42.518Z,17.39
2019-05-21T07:43:11.015Z,17.43
2019-05-21T07:45:39.503Z,17.44
2019-05-21T07:48:07.986Z,17.42
2019-05-21T07:50:36.438Z,17.38
2019-05-21T07:53:04.917Z,17.37
2019-05-21T07:55:33.508Z,17.37
2019-05-21T07:58:01.988Z,17.39
2019-05-21T08:00:30.505Z,17.43
2019-05-21T08:02:58.983Z,17.37
2019-05-21T08:05:27.483Z,17.36
2019-05-21T08:07:56.285Z,17.34
2019-05-21T08:10:24.787Z,17.34
2019-05-21T08:12:53.292Z,17.36
2019-05-21T08:15:21.867Z,17.31
2019-05-21T08:17:50.332Z,17.26
2019-05-21T08:20:18.931Z,17.24
2019-05-21T08:22:47.447Z,17.22
2019-05-21T08:25:15.916Z,17.23
2019-05-21T08:27:44.727Z,17.25
2019-05-21T08:30:13.567Z,17.26
2019-05-21T08:32:42.027Z,17.31
2019-05-21T08:35:10.540Z,17.34
2019-05-21T08:37:39.009Z,17.32
2019-05-21T08:40:07.848Z,17.29
2019-05-21T08:42:36.378Z,17.23
2019-05-21T08:45:05.726Z,17.22
2019-05-21T08:47:34.413Z,17.24
2019-05-21T08:50:02.966Z,17.27
2019-05-21T08:52:31.468Z,17.26
2019-05-21T08:54:59.924Z,17.29
2019-05-21T08:57:28.398Z,17.32
2019-05-21T08:59:57.093Z,17.32
2019-05-21T09:02:26.142Z,17.28
2019-05-21T09:04:54.633Z,17.31
2019-05-21T09:07:23.138Z,17.22
2019-05-21T09:09:52.235Z,17.21
2019-05-21T09:12:20.790Z,17.21
2019-05-21T09:14:49.306Z,17.18
2019-05-21T09:17:17.799Z,17.20
2019-05-21T09:19:46.559Z,17.15
2019-05-21T09:22:15.024Z,17.13
2019-05-21T09:24:43.734Z,17.12
2019-05-21T09:27:12.208Z,17.11
2019-05-21T09:29:40.686Z,17.11
2019-05-21T09:32:09.618Z,17.14
2019-05-21T09:34:48.266Z,17.17
2019-05-21T09:37:19.292Z,17.19
2019-05-21T09:39:38.753Z,17.21
2019-05-21T09:42:07.503Z,17.26
2019-05-21T09:44:36.002Z,17.26
2019-05-21T09:47:04.731Z,17.25
2019-05-21T09:49:33.214Z,17.30
2019-05-21T09:52:01.695Z,17.27
2019-05-21T09:54:30.195Z,17.25
2019-05-21T09:56:58.677Z,17.32
2019-05-21T09:59:58.672Z,17.36
2019-05-21T10:02:29.518Z,17.33
2019-05-21T10:04:58.289Z,17.33
2019-05-21T10:07:39.338Z,17.27
2019-05-21T10:09:57.084Z,17.16
2019-05-21T10:12:25.521Z,17.15
2019-05-21T10:14:54.023Z,17.13
2019-05-21T10:17:22.581Z,17.11
2019-05-21T10:19:51.058Z,17.11
2019-05-21T10:22:19.807Z,17.09
2019-05-21T10:24:48.272Z,17.10
2019-05-21T10:27:17.116Z,17.09
2019-05-21T10:29:45.588Z,17.11
2019-05-21T10:32:14.072Z,17.08
2019-05-21T10:34:42.577Z,17.12
2019-05-21T10:37:11.059Z,17.13
2019-05-21T10:39:39.559Z,17.16
2019-05-21T10:42:08.061Z,17.20
2019-05-21T10:44:36.566Z,17.26
2019-05-21T10:47:05.090Z,17.23
2019-05-21T10:49:33.848Z,17.21
2019-05-21T10:52:02.364Z,17.20
2019-05-21T10:54:30.863Z,17.21
2019-05-21T10:56:59.352Z,17.20
2019-05-21T10:59:27.835Z,17.26
2019-05-21T11:02:09.729Z,17.34
2019-05-21T11:04:48.386Z,17.37
2019-05-21T11:07:18.130Z,17.32
2019-05-21T11:09:46.621Z,17.41
2019-05-21T11:12:15.301Z,17.47
2019-05-21T11:14:43.765Z,17.47
2019-05-21T11:17:12.755Z,17.49
2019-05-21T11:19:41.353Z,17.51
2019-05-21T11:22:09.923Z,17.51
2019-05-21T11:24:38.411Z,17.54
2019-05-21T11:27:06.922Z,17.54
2019-05-21T11:29:35.408Z,17.54
2019-05-21T11:32:03.909Z,17.55
2019-05-21T11:34:32.688Z,17.51
2019-05-21T11:37:01.556Z,17.46
2019-05-21T11:39:29.996Z,17.49
2019-05-21T11:41:58.491Z,17.47
2019-05-21T11:44:26.977Z,17.47
2019-05-21T11:46:55.463Z,17.43
2019-05-21T11:49:23.957Z,17.38
2019-05-21T11:51:52.764Z,17.38
2019-05-21T11:54:21.236Z,17.46
2019-05-21T11:56:49.720Z,17.49
2019-05-21T11:59:18.528Z,17.53
2019-05-21T12:01:47.309Z,17.57
2019-05-21T12:04:15.810Z,17.56
2019-05-21T12:06:44.570Z,17.56
2019-05-21T12:09:13.377Z,17.61
2019-05-21T12:11:42.086Z,17.63
2019-05-21T12:14:10.587Z,17.64
2019-05-21T12:16:39.358Z,17.59
2019-05-21T12:19:08.595Z,17.56
2019-05-21T12:21:37.273Z,17.59
2019-05-21T12:24:05.991Z,17.59
2019-05-21T12:26:34.493Z,17.58
2019-05-21T12:29:03.033Z,17.63
2019-05-21T12:31:31.609Z,17.67
2019-05-21T12:34:00.092Z,17.72
2019-05-21T12:36:28.586Z,17.72
2019-05-21T12:39:12.721Z,17.65
2019-05-21T12:41:27.267Z,17.60
2019-05-21T12:43:55.799Z,17.56
2019-05-21T12:46:24.281Z,17.57
2019-05-21T12:48:52.764Z,17.57
2019-05-21T12:51:21.247Z,17.61
2019-05-21T12:53:49.749Z,17.67
2019-05-21T12:56:18.554Z,17.70
2019-05-21T12:58:47.013Z,17.67
2019-05-21T13:01:15.487Z,17.67
2019-05-21T13:03:43.984Z,17.64
2019-05-21T13:06:12.480Z,17.63
2019-05-21T13:08:41.065Z,17.59
2019-05-21T13:11:09.526Z,17.59
2019-05-21T13:13:38.005Z,17.59
2019-05-21T13:16:06.510Z,17.61
2019-05-21T13:18:35.000Z,17.61
2019-05-21T13:21:03.527Z,17.63
2019-05-21T13:23:32.046Z,17.63
2019-05-21T13:26:00.507Z,17.59
2019-05-21T13:28:28.981Z,17.62
2019-05-21T13:30:57.553Z,17.65
2019-05-21T13:33:26.048Z,17.67
2019-05-21T13:35:54.540Z,17.71
2019-05-21T13:38:24.390Z,17.71
2019-05-21T13:40:53.179Z,17.72
2019-05-21T13:43:21.690Z,17.72
2019-05-21T13:45:50.163Z,17.71
2019-05-21T13:48:18.623Z,17.70
2019-05-21T13:50:47.125Z,17.66
2019-05-21T13:53:15.662Z,17.67
2019-05-21T13:55:44.585Z,17.65
2019-05-21T13:58:13.052Z,17.58
2019-05-21T14:00:49.012Z,17.57
2019-05-21T14:03:17.550Z,17.52
2019-05-21T14:05:46.550Z,17.52
2019-05-21T14:08:15.033Z,17.48
2019-05-21T14:10:43.806Z,17.37
2019-05-21T14:13:12.311Z,17.25
2019-05-21T14:15:40.802Z,17.14
2019-05-21T14:18:09.322Z,16.99
2019-05-21T14:20:37.780Z,16.95
2019-05-21T14:23:06.255Z,16.93
2019-05-21T14:25:34.985Z,16.89
2019-05-21T14:28:03.791Z,16.90
2019-05-21T14:30:32.274Z,16.91
2019-05-21T14:33:00.737Z,16.88
2019-05-21T14:35:29.257Z,16.87
2019-05-21T14:37:58.123Z,16.74
2019-05-21T14:40:31.536Z,16.64
2019-05-21T14:43:00.380Z,16.63
2019-05-21T14:45:29.928Z,16.62
2019-05-21T14:47:57.723Z,16.56
2019-05-21T14:50:26.219Z,16.57
2019-05-21T14:52:54.743Z,16.51
2019-05-21T14:55:23.242Z,16.42
2019-05-21T14:57:51.741Z,16.25
2019-05-21T15:00:24.751Z,16.15
2019-05-21T15:02:53.266Z,16.14
2019-05-21T15:05:21.755Z,16.13
2019-05-21T15:07:50.249Z,16.11
2019-05-21T15:10:18.767Z,16.08
2019-05-21T15:12:47.265Z,16.13
2019-05-21T15:15:15.800Z,16.18
2019-05-21T15:17:44.283Z,16.20
2019-05-21T15:20:19.544Z,16.18
2019-05-21T15:22:48.024Z,16.14
2019-05-21T15:25:16.514Z,16.10
2019-05-21T15:27:44.988Z,16.06
2019-05-21T15:30:13.810Z,16.04
2019-05-21T15:32:42.454Z,15.93
2019-05-21T15:35:10.976Z,15.87
2019-05-21T15:37:39.792Z,15.81
2019-05-21T15:40:08.575Z,15.70
2019-05-21T15:42:37.340Z,15.62
2019-05-21T15:45:05.897Z,15.56
2019-05-21T15:47:34.914Z,15.46
2019-05-21T15:50:03.411Z,15.49
2019-05-21T15:52:31.892Z,15.51
2019-05-21T15:55:00.375Z,15.54
2019-05-21T15:57:29.182Z,15.54
2019-05-21T15:59:57.957Z,15.59
2019-05-21T16:02:26.413Z,15.52
2019-05-21T16:04:54.956Z,15.51
2019-05-21T16:07:23.458Z,15.51
2019-05-21T16:09:51.932Z,15.45
2019-05-21T16:12:21.151Z,15.37
2019-05-21T16:14:49.981Z,15.33
2019-05-21T16:17:18.487Z,15.33
2019-05-21T16:19:46.981Z,15.32
2019-05-21T16:22:15.445Z,15.28
2019-05-21T16:24:43.931Z,15.26
2019-05-21T16:27:12.388Z,15.23
2019-05-21T16:29:40.874Z,15.28
2019-05-21T16:32:09.417Z,15.32
2019-05-21T16:34:37.945Z,15.26
2019-05-21T16:37:06.461Z,15.16
2019-05-21T16:39:35.134Z,15.11
2019-05-21T16:42:03.707Z,15.16
2019-05-21T16:44:32.211Z,15.11
2019-05-21T16:47:00.963Z,15.10
2019-05-21T16:49:29.440Z,15.12
2019-05-21T16:51:58.182Z,15.12
2019-05-21T16:54:26.735Z,15.04
2019-05-21T16:56:55.173Z,14.91
2019-05-21T16:59:23.910Z,14.88
2019-05-21T17:01:52.420Z,14.84
2019-05-21T17:04:21.219Z,14.81
2019-05-21T17:06:50.016Z,14.83
2019-05-21T17:09:18.500Z,14.79
2019-05-21T17:11:58.914Z,14.71
2019-05-21T17:14:17.181Z,14.71
2019-05-21T17:16:45.685Z,14.69
2019-05-21T17:19:14.208Z,14.68
2019-05-21T17:21:42.661Z,14.73
2019-05-21T17:24:11.225Z,14.74
2019-05-21T17:26:42.803Z,14.65
2019-05-21T17:29:09.939Z,14.55
2019-05-21T17:31:38.407Z,14.57
2019-05-21T17:34:07.206Z,14.62
2019-05-21T17:36:35.968Z,14.60
2019-05-21T17:39:05.958Z,14.61
2019-05-21T17:41:34.674Z,14.66
2019-05-21T17:44:03.148Z,14.67
2019-05-21T17:46:31.933Z,14.61
2019-05-21T17:49:00.450Z,14.58
2019-05-21T17:51:28.938Z,14.56
2019-05-21T17:53:57.425Z,14.55
2019-05-21T17:56:25.901Z,14.52
2019-05-21T17:58:54.401Z,14.53
2019-05-21T18:01:22.867Z,14.48
2019-05-21T18:03:51.601Z,14.43
2019-05-21T18:06:20.184Z,14.38
2019-05-21T18:08:48.737Z,14.41
2019-05-21T18:11:18.028Z,14.40
2019-05-21T18:13:48.050Z,14.27
2019-05-21T18:16:16.669Z,14.21
2019-05-21T18:18:45.408Z,14.15
2019-05-21T18:21:13.951Z,14.16
2019-05-21T18:23:42.431Z,14.20
2019-05-21T18:26:11.218Z,14.10
2019-05-21T18:28:40.077Z,14.13
2019-05-21T18:31:08.650Z,14.03
2019-05-21T18:33:37.105Z,14.02
2019-05-21T18:36:05.586Z,14.03
2019-05-21T18:38:34.120Z,13.98
2019-05-21T18:41:02.713Z,13.99
2019-05-21T18:43:31.194Z,13.96
2019-05-21T18:45:59.727Z,13.98
2019-05-21T18:48:28.475Z,13.95
2019-05-21T18:50:56.952Z,13.84
2019-05-21T18:53:25.448Z,13.84
2019-05-21T18:55:54.228Z,13.87
2019-05-21T18:58:25.178Z,13.87
2019-05-21T19:00:52.928Z,13.84
2019-05-21T19:03:25.143Z,13.91
2019-05-21T19:05:51.953Z,13.89
2019-05-21T19:08:20.739Z,13.86
2019-05-21T19:10:49.243Z,13.81
2019-05-21T19:13:18.100Z,13.82
2019-05-21T19:15:46.553Z,13.78
2019-05-21T19:18:15.356Z,13.79
2019-05-21T19:20:43.910Z,13.75
2019-05-21T19:23:12.862Z,13.74
2019-05-21T19:25:41.324Z,13.72
2019-05-21T19:28:09.836Z,13.73
2019-05-21T19:30:38.339Z,13.73
2019-05-21T19:33:06.936Z,13.76
2019-05-21T19:35:35.412Z,13.75
2019-05-21T19:38:03.896Z,13.79
2019-05-21T19:40:32.376Z,13.82
2019-05-21T19:43:00.885Z,13.82
2019-05-21T19:45:31.386Z,13.75
2019-05-21T19:47:59.656Z,13.70
2019-05-21T19:50:28.481Z,13.70
2019-05-21T19:52:57.071Z,13.63
2019-05-21T19:55:26.516Z,13.61
2019-05-21T19:57:55.319Z,13.56
2019-05-21T20:00:26.392Z,13.52
2019-05-21T20:02:54.872Z,13.50
2019-05-21T20:05:23.647Z,13.48
2019-05-21T20:07:52.211Z,13.44
2019-05-21T20:10:21.165Z,13.51
2019-05-21T20:12:49.676Z,13.47
2019-05-21T20:15:18.177Z,13.46
2019-05-21T20:17:50.805Z,13.40
2019-05-21T20:20:19.472Z,13.39
2019-05-21T20:22:48.201Z,13.28
2019-05-21T20:25:17.220Z,13.24
2019-05-21T20:27:45.711Z,13.23
2019-05-21T20:30:16.838Z,13.19
2019-05-21T20:32:46.335Z,13.17
2019-05-21T20:35:16.671Z,13.10
2019-05-21T20:37:46.801Z,13.11
2019-05-21T20:40:15.560Z,13.09
2019-05-21T20:42:44.612Z,13.03
2019-05-21T20:45:15.416Z,13.03
2019-05-21T20:47:45.105Z,12.96
2019-05-21T20:50:15.265Z,13.02
2019-05-21T20:52:43.807Z,13.06
2019-05-21T20:55:12.684Z,13.04
2019-05-21T20:57:41.159Z,13.01
2019-05-21T21:00:10.937Z,12.94
2019-05-21T21:02:40.545Z,13.02
2019-05-21T21:05:09.812Z,13.04
2019-05-21T21:07:39.398Z,12.96
2019-05-21T21:10:08.941Z,12.88
2019-05-21T21:12:38.407Z,12.84
2019-05-21T21:15:06.967Z,12.85
2019-05-21T21:17:35.925Z,12.87
2019-05-21T21:20:04.909Z,12.91
2019-05-21T21:22:33.436Z,12.94
2019-05-21T21:25:02.022Z,12.92
2019-05-21T21:27:30.549Z,12.87
2019-05-21T21:29:59.038Z,12.90
2019-05-21T21:32:27.574Z,12.90
2019-05-21T21:34:56.078Z,12.94
2019-05-21T21:37:25.006Z,12.95
2019-05-21T21:39:53.957Z,12.86
2019-05-21T21:42:22.520Z,12.88
2019-05-21T21:44:51.191Z,12.85
2019-05-21T21:47:20.339Z,12.76
2019-05-21T21:49:48.870Z,12.74
2019-05-21T21:52:18.138Z,12.69
2019-05-21T21:54:47.132Z,12.65
2019-05-21T21:57:15.608Z,12.73
2019-05-21T21:59:44.146Z,12.71
2019-05-21T22:02:19.969Z,12.75
2019-05-21T22:04:48.834Z,12.78
2019-05-21T22:07:17.656Z,12.77
2019-05-21T22:09:46.973Z,12.78
2019-05-21T22:12:17.465Z,12.75
2019-05-21T22:14:52.017Z,12.68
2019-05-21T22:17:19.365Z,12.67
2019-05-21T22:19:48.166Z,12.59
2019-05-21T22:22:17.118Z,12.55
2019-05-21T22:24:45.596Z,12.48
2019-05-21T22:27:14.426Z,12.46
2019-05-21T22:29:42.907Z,12.44
2019-05-21T22:32:11.388Z,12.39
2019-05-21T22:34:39.952Z,12.30
2019-05-21T22:37:11.911Z,12.28
2019-05-21T22:39:42.090Z,12.33
2019-05-21T22:42:10.967Z,12.03
2019-05-21T22:44:39.446Z,12.37
2019-05-21T22:47:08.347Z,12.33
2019-05-21T22:49:37.136Z,12.30
2019-05-21T22:52:05.697Z,12.32
2019-05-21T22:54:34.213Z,12.31
2019-05-21T22:57:02.686Z,12.28
2019-05-21T22:59:31.203Z,12.27
2019-05-21T23:02:01.601Z,12.31
2019-05-21T23:04:30.087Z,12.33
2019-05-21T23:06:58.589Z,12.35
2019-05-21T23:09:27.091Z,12.36
2019-05-21T23:11:55.596Z,12.33
2019-05-21T23:14:24.093Z,12.28
2019-05-21T23:16:52.557Z,12.26
2019-05-21T23:19:24.259Z,12.28
2019-05-21T23:21:52.557Z,12.27
2019-05-21T23:24:23.411Z,12.24
2019-05-21T23:26:52.448Z,12.27
2019-05-21T23:29:21.183Z,12.29
2019-05-21T23:31:49.902Z,12.33
2019-05-21T23:34:18.663Z,12.33
2019-05-21T23:36:49.063Z,12.32
2019-05-21T23:39:22.123Z,12.27
2019-05-21T23:41:51.095Z,12.26
2019-05-21T23:44:19.885Z,12.25
2019-05-21T23:46:48.374Z,12.20
2019-05-21T23:49:16.839Z,12.13
2019-05-21T23:51:45.344Z,12.18
2019-05-21T23:54:14.146Z,12.25
2019-05-21T23:56:42.665Z,12.25
2019-05-21T23:59:11.155Z,12.22
